Terminal Aerodrome Forecast
Issued by NWS

Home | Current Version | Previous Version | Text Only | Print | Product List | Glossary On
Versions: 1 2 3 4 5 6 7 8 9 10 11 12 13 14 15 16 17
000
FTUS46 KEKA 291140
TAFCEC
TAF
KCEC 291140Z 2912/3012 13003KT 6SM BR BKN120 OVC200
     FM291300 02003KT 6SM BR BKN200
     FM292000 33007KT P6SM SCT250
     FM300300 35006KT 6SM BR SCT015=

USA.gov is the U.S. government's official web portal to all federal, state and local government web resources and services.